createdAt,value
2022-09-23T00:01:37.554Z,7.87
2022-09-23T00:04:41.477Z,7.94
2022-09-23T00:07:44.553Z,8.07
2022-09-23T00:10:47.637Z,7.90
2022-09-23T00:13:52.766Z,7.96
2022-09-23T00:16:55.608Z,7.84
2022-09-23T00:19:58.244Z,7.77
2022-09-23T00:23:01.419Z,7.84
2022-09-23T00:26:06.201Z,7.86
2022-09-23T00:29:09.035Z,7.83
2022-09-23T00:32:11.543Z,7.78
2022-09-23T00:35:14.296Z,7.76
2022-09-23T00:38:17.220Z,7.58
2022-09-23T00:41:21.334Z,7.44
2022-09-23T00:44:48.652Z,7.29
2022-09-23T00:47:54.967Z,7.31
2022-09-23T00:50:57.522Z,7.36
2022-09-23T00:54:02.166Z,7.29
2022-09-23T00:57:05.721Z,7.26
2022-09-23T01:00:09.197Z,7.23
2022-09-23T01:03:12.030Z,7.19
2022-09-23T01:06:14.934Z,7.17
2022-09-23T01:09:18.253Z,7.10
2022-09-23T01:12:21.452Z,7.06
2022-09-23T01:15:39.162Z,7.03
2022-09-23T01:18:50.680Z,6.99
2022-09-23T01:21:57.011Z,7.04
2022-09-23T01:25:11.604Z,6.94
2022-09-23T01:28:40.876Z,6.84
2022-09-23T01:31:57.717Z,6.72
2022-09-23T01:35:15.207Z,6.68
2022-09-23T01:38:40.327Z,6.58
2022-09-23T01:42:09.589Z,6.46
2022-09-23T01:45:19.490Z,6.34
2022-09-23T01:48:43.168Z,6.48
2022-09-23T01:51:50.998Z,6.66
2022-09-23T01:55:02.256Z,6.53
2022-09-23T01:58:14.674Z,6.47
2022-09-23T02:01:23.797Z,6.36
2022-09-23T02:04:47.195Z,6.25
2022-09-23T02:07:57.783Z,6.19
2022-09-23T02:11:06.541Z,6.26
2022-09-23T02:14:35.908Z,6.52
2022-09-23T02:17:49.634Z,6.53
2022-09-23T02:20:59.263Z,6.51
2022-09-23T02:24:19.524Z,6.29
2022-09-23T02:27:31.280Z,6.29
2022-09-23T02:30:45.237Z,6.33
2022-09-23T02:34:09.237Z,6.40
2022-09-23T02:37:27.317Z,6.37
2022-09-23T02:40:40.338Z,6.34
2022-09-23T02:43:51.943Z,6.31
2022-09-23T02:46:55.097Z,6.25
2022-09-23T02:49:57.893Z,6.17
2022-09-23T02:53:01.139Z,6.16
2022-09-23T02:56:15.536Z,6.01
2022-09-23T02:59:20.300Z,6.04
2022-09-23T03:02:49.272Z,6.02
2022-09-23T03:05:58.941Z,5.87
2022-09-23T03:09:27.860Z,6.07
2022-09-23T03:13:00.480Z,6.24
2022-09-23T03:16:22.500Z,6.02
2022-09-23T03:19:37.883Z,5.82
2022-09-23T03:22:46.909Z,5.85
2022-09-23T03:25:54.051Z,6.03
2022-09-23T03:28:58.731Z,6.03
2022-09-23T03:32:01.469Z,5.95
2022-09-23T03:35:05.886Z,5.99
2022-09-23T03:38:17.296Z,5.86
2022-09-23T03:41:28.998Z,5.77
2022-09-23T03:44:39.692Z,5.68
2022-09-23T03:47:43.847Z,5.68
2022-09-23T03:50:46.297Z,5.61
2022-09-23T03:53:49.396Z,5.58
2022-09-23T03:56:52.000Z,5.63
2022-09-23T03:59:55.067Z,5.72
2022-09-23T04:02:57.527Z,5.62
2022-09-23T04:06:00.903Z,5.58
2022-09-23T04:09:03.551Z,5.47
2022-09-23T04:12:06.923Z,5.51
2022-09-23T04:15:09.922Z,5.44
2022-09-23T04:18:12.603Z,5.39
2022-09-23T04:21:15.488Z,5.32
2022-09-23T04:24:18.758Z,5.25
2022-09-23T04:27:21.276Z,5.30
2022-09-23T04:30:24.000Z,5.38
2022-09-23T04:33:26.682Z,5.50
2022-09-23T04:36:30.376Z,5.37
2022-09-23T04:39:32.794Z,5.28
2022-09-23T04:42:35.463Z,5.23
2022-09-23T04:45:37.819Z,5.20
2022-09-23T04:48:44.069Z,5.18
2022-09-23T04:51:46.687Z,5.20
2022-09-23T04:54:49.409Z,5.21
2022-09-23T04:57:53.752Z,5.25
2022-09-23T05:01:01.729Z,5.27
2022-09-23T05:04:11.023Z,5.33
2022-09-23T05:07:14.008Z,5.36
2022-09-23T05:10:17.780Z,5.44
2022-09-23T05:13:20.453Z,5.47
2022-09-23T05:16:24.349Z,5.64
2022-09-23T05:19:27.198Z,5.96
2022-09-23T05:22:30.682Z,6.16
2022-09-23T05:25:38.097Z,6.17
2022-09-23T05:28:41.031Z,6.25
2022-09-23T05:31:43.908Z,6.28
2022-09-23T05:34:46.674Z,6.37
2022-09-23T05:37:49.426Z,6.41
2022-09-23T05:41:00.732Z,6.48
2022-09-23T05:44:03.741Z,6.63
2022-09-23T05:47:06.602Z,6.71
2022-09-23T05:50:10.004Z,6.75
2022-09-23T05:53:12.462Z,6.86
2022-09-23T05:56:18.090Z,6.99
2022-09-23T05:59:20.569Z,7.14
2022-09-23T06:02:23.633Z,7.24
2022-09-23T06:05:26.515Z,7.32
2022-09-23T06:08:29.119Z,7.49
2022-09-23T06:11:34.190Z,7.57
2022-09-23T06:14:37.041Z,7.61
2022-09-23T06:17:39.768Z,7.62
2022-09-23T06:20:42.268Z,7.72
2022-09-23T06:23:45.717Z,7.81
2022-09-23T06:26:48.358Z,8.05
2022-09-23T06:29:52.535Z,8.14
2022-09-23T06:32:57.309Z,8.16
2022-09-23T06:36:01.943Z,8.26
2022-09-23T06:39:04.860Z,8.65
2022-09-23T06:42:07.920Z,9.19
2022-09-23T06:45:13.035Z,9.99
2022-09-23T06:48:15.735Z,9.87
2022-09-23T06:51:21.733Z,9.59
2022-09-23T06:54:25.423Z,9.74
2022-09-23T06:57:32.863Z,9.90
2022-09-23T07:00:36.288Z,9.94
2022-09-23T07:03:39.077Z,10.28
2022-09-23T07:06:41.922Z,10.48
2022-09-23T07:09:45.427Z,10.75
2022-09-23T07:12:48.198Z,10.84
2022-09-23T07:16:02.151Z,10.95
2022-09-23T07:19:05.363Z,11.91
2022-09-23T07:22:07.945Z,12.51
2022-09-23T07:25:12.198Z,14.30
2022-09-23T07:28:14.659Z,16.02
2022-09-23T07:31:29.687Z,17.04
2022-09-23T07:34:37.307Z,17.46
2022-09-23T07:37:40.099Z,18.56
2022-09-23T07:40:42.696Z,16.57
2022-09-23T07:43:46.964Z,16.44
2022-09-23T07:46:50.900Z,16.82
2022-09-23T07:49:54.144Z,19.37
2022-09-23T07:52:56.766Z,20.28
2022-09-23T07:55:59.709Z,21.32
2022-09-23T07:59:05.531Z,20.58
2022-09-23T08:02:09.750Z,20.67
2022-09-23T08:05:12.549Z,19.76
2022-09-23T08:08:16.019Z,21.75
2022-09-23T08:11:19.172Z,23.67
2022-09-23T08:14:24.961Z,23.20
2022-09-23T08:17:27.813Z,24.80
2022-09-23T08:20:47.351Z,24.58
2022-09-23T08:23:51.736Z,24.87
2022-09-23T08:26:55.836Z,23.95
2022-09-23T08:29:58.593Z,25.45
2022-09-23T08:33:01.070Z,26.72
2022-09-23T08:36:04.079Z,24.99
2022-09-23T08:39:06.864Z,25.47
2022-09-23T08:42:27.616Z,25.30
2022-09-23T08:45:30.743Z,24.23
2022-09-23T08:48:52.529Z,21.06
2022-09-23T08:51:56.086Z,18.46
2022-09-23T08:55:01.170Z,17.00
2022-09-23T08:58:35.212Z,16.71
2022-09-23T09:01:44.431Z,15.82
2022-09-23T09:04:58.079Z,15.29
2022-09-23T09:08:03.752Z,15.18
2022-09-23T09:11:07.078Z,15.12
2022-09-23T09:14:30.088Z,15.18
2022-09-23T09:17:38.869Z,15.13
2022-09-23T09:21:08.540Z,14.94
2022-09-23T09:24:33.671Z,14.86
2022-09-23T09:27:40.733Z,14.92
2022-09-23T09:30:48.385Z,14.77
2022-09-23T09:33:59.347Z,14.41
2022-09-23T09:37:18.812Z,14.34
2022-09-23T09:40:21.763Z,14.80
2022-09-23T09:43:24.618Z,15.16
2022-09-23T09:46:50.511Z,15.21
2022-09-23T09:50:05.678Z,15.40
2022-09-23T09:53:28.214Z,15.19
2022-09-23T09:56:36.262Z,15.52
2022-09-23T09:59:44.154Z,15.61
2022-09-23T10:03:14.486Z,15.88
2022-09-23T10:06:24.426Z,16.16
2022-09-23T10:09:34.194Z,16.21
2022-09-23T10:12:43.858Z,16.46
2022-09-23T10:15:47.289Z,16.46
2022-09-23T10:18:55.771Z,16.67
2022-09-23T10:22:09.165Z,16.47
2022-09-23T10:25:26.746Z,16.47
2022-09-23T10:28:44.085Z,16.24
2022-09-23T10:31:46.886Z,16.63
2022-09-23T10:34:53.223Z,16.69
2022-09-23T10:38:02.296Z,16.74
2022-09-23T10:41:30.439Z,16.74
2022-09-23T10:45:26.496Z,16.80
2022-09-23T10:49:10.036Z,17.10
2022-09-23T10:52:22.384Z,16.81
2022-09-23T10:55:40.651Z,19.26
2022-09-23T10:59:12.606Z,24.06
2022-09-23T11:02:23.795Z,28.98
2022-09-23T11:05:36.443Z,27.39
2022-09-23T11:09:03.047Z,26.12
2022-09-23T11:12:14.865Z,26.10
2022-09-23T11:15:49.408Z,24.74
2022-09-23T11:19:26.755Z,22.87
2022-09-23T11:22:53.854Z,21.21
2022-09-23T11:26:19.026Z,21.36
2022-09-23T11:29:22.302Z,22.87
2022-09-23T11:32:31.560Z,25.39
2022-09-23T11:35:41.650Z,25.81
2022-09-23T11:38:48.884Z,28.49
2022-09-23T11:41:59.835Z,29.69
2022-09-23T11:45:13.019Z,31.24
2022-09-23T11:48:23.957Z,27.03
2022-09-23T11:51:32.026Z,28.05
2022-09-23T11:54:40.131Z,29.61
2022-09-23T11:57:49.516Z,29.16
2022-09-23T12:01:01.208Z,31.27
2022-09-23T12:04:19.580Z,28.41
2022-09-23T12:07:29.089Z,29.37
2022-09-23T12:11:00.572Z,27.87
2022-09-23T12:14:29.443Z,31.30
2022-09-23T12:17:37.990Z,30.08
2022-09-23T12:20:43.456Z,30.85
2022-09-23T12:24:07.672Z,26.12
2022-09-23T12:27:24.515Z,24.51
2022-09-23T12:30:32.201Z,24.32
2022-09-23T12:33:40.065Z,27.97
2022-09-23T12:36:49.492Z,30.09
2022-09-23T12:39:52.766Z,27.53
2022-09-23T12:42:56.247Z,26.07
2022-09-23T12:46:20.214Z,22.88
2022-09-23T12:49:25.261Z,23.81
2022-09-23T12:52:33.603Z,28.24
2022-09-23T12:55:36.353Z,31.40
2022-09-23T12:58:42.677Z,32.65
2022-09-23T13:01:45.804Z,33.50
2022-09-23T13:05:27.644Z,33.57
2022-09-23T13:08:34.077Z,30.75
2022-09-23T13:11:40.382Z,29.70
2022-09-23T13:14:46.545Z,29.92
2022-09-23T13:17:49.056Z,25.93
2022-09-23T13:20:54.932Z,23.53
2022-09-23T13:24:18.677Z,21.52
2022-09-23T13:27:31.004Z,20.16
2022-09-23T13:30:34.635Z,19.02
2022-09-23T13:33:46.809Z,18.97
2022-09-23T13:36:49.445Z,18.23
2022-09-23T13:39:52.104Z,18.08
2022-09-23T13:43:01.244Z,17.71
2022-09-23T13:46:10.318Z,17.84
2022-09-23T13:49:24.680Z,17.40
2022-09-23T13:52:31.802Z,18.23
2022-09-23T13:55:39.250Z,21.70
2022-09-23T13:58:45.088Z,25.55
2022-09-23T14:02:09.743Z,29.78
2022-09-23T14:05:24.230Z,25.67
2022-09-23T14:08:28.314Z,22.53
2022-09-23T14:11:35.162Z,20.66
2022-09-23T14:14:40.861Z,19.39
2022-09-23T14:17:49.530Z,18.54
2022-09-23T14:20:51.930Z,18.24
2022-09-23T14:23:55.574Z,17.76
2022-09-23T14:27:12.063Z,17.13
2022-09-23T14:30:18.560Z,17.13
2022-09-23T14:33:39.258Z,16.81
2022-09-23T14:37:01.564Z,17.03
2022-09-23T14:40:10.953Z,17.08
2022-09-23T14:43:23.273Z,17.05
2022-09-23T14:46:31.385Z,16.84
2022-09-23T14:49:34.187Z,16.85
2022-09-23T14:52:36.661Z,17.01
2022-09-23T14:55:41.494Z,16.91
2022-09-23T14:58:51.905Z,16.80
2022-09-23T15:01:54.984Z,16.75
2022-09-23T15:05:18.260Z,17.00
2022-09-23T15:08:23.610Z,17.18
2022-09-23T15:11:26.343Z,17.21
2022-09-23T15:14:39.751Z,17.01
2022-09-23T15:17:44.196Z,16.85
2022-09-23T15:20:52.325Z,17.04
2022-09-23T15:23:57.554Z,17.17
2022-09-23T15:27:00.424Z,17.09
2022-09-23T15:30:17.385Z,17.04
2022-09-23T15:33:25.048Z,16.76
2022-09-23T15:36:28.769Z,16.68
2022-09-23T15:39:36.236Z,16.62
2022-09-23T15:42:39.725Z,16.57
2022-09-23T15:46:04.690Z,16.37
2022-09-23T15:49:16.107Z,16.24
2022-09-23T15:52:22.718Z,16.20
2022-09-23T15:55:25.352Z,16.13
2022-09-23T15:58:28.171Z,16.05
2022-09-23T16:01:33.225Z,16.09
2022-09-23T16:04:36.244Z,15.88
2022-09-23T16:07:38.700Z,15.93
2022-09-23T16:10:42.910Z,16.06
2022-09-23T16:13:45.660Z,16.07
2022-09-23T16:16:48.557Z,15.95
2022-09-23T16:19:50.974Z,15.87
2022-09-23T16:22:57.822Z,15.85
2022-09-23T16:26:13.888Z,15.85
2022-09-23T16:29:16.874Z,15.91
2022-09-23T16:32:22.248Z,15.95
2022-09-23T16:35:27.926Z,15.78
2022-09-23T16:38:31.967Z,15.68
2022-09-23T16:41:35.018Z,15.57
2022-09-23T16:44:41.486Z,15.47
2022-09-23T16:47:46.452Z,15.44
2022-09-23T16:50:48.922Z,15.43
2022-09-23T16:53:51.973Z,15.41
2022-09-23T16:56:55.152Z,15.32
2022-09-23T17:00:16.704Z,15.13
2022-09-23T17:03:37.918Z,15.05
2022-09-23T17:06:44.555Z,14.91
2022-09-23T17:09:46.965Z,14.69
2022-09-23T17:12:50.587Z,14.50
2022-09-23T17:15:54.011Z,14.40
2022-09-23T17:18:57.371Z,14.10
2022-09-23T17:22:00.001Z,13.89
2022-09-23T17:25:03.814Z,13.73
2022-09-23T17:28:06.342Z,13.68
2022-09-23T17:31:09.691Z,13.43
2022-09-23T17:34:12.232Z,13.24
2022-09-23T17:37:15.126Z,13.11
2022-09-23T17:40:18.015Z,12.99
2022-09-23T17:43:25.060Z,12.95
2022-09-23T17:46:30.058Z,12.90
2022-09-23T17:49:35.215Z,12.79
2022-09-23T17:52:37.809Z,12.63
2022-09-23T17:55:40.940Z,12.50
2022-09-23T17:58:44.683Z,12.52
2022-09-23T18:01:47.452Z,12.46
2022-09-23T18:04:50.227Z,12.32
2022-09-23T18:07:52.613Z,12.16
2022-09-23T18:10:55.425Z,12.06
2022-09-23T18:14:04.111Z,11.94
2022-09-23T18:17:06.824Z,11.82
2022-09-23T18:20:09.913Z,11.75
2022-09-23T18:23:12.672Z,11.65
2022-09-23T18:26:16.750Z,11.60
2022-09-23T18:29:19.727Z,11.56
2022-09-23T18:32:22.197Z,11.44
2022-09-23T18:35:25.477Z,11.32
2022-09-23T18:38:28.156Z,11.24
2022-09-23T18:41:31.461Z,11.15
2022-09-23T18:44:33.901Z,11.04
2022-09-23T18:47:55.331Z,11.03
2022-09-23T18:50:57.839Z,10.94
2022-09-23T18:54:02.849Z,10.88
2022-09-23T18:57:05.323Z,10.87
2022-09-23T19:00:09.802Z,10.79
2022-09-23T19:03:12.232Z,10.70
2022-09-23T19:06:21.149Z,10.64
2022-09-23T19:09:24.168Z,10.58
2022-09-23T19:12:27.171Z,10.54
2022-09-23T19:15:29.676Z,10.45
2022-09-23T19:18:33.772Z,10.37
2022-09-23T19:21:37.021Z,10.29
2022-09-23T19:24:39.849Z,10.22
2022-09-23T19:27:42.395Z,10.18
2022-09-23T19:30:45.309Z,10.13
2022-09-23T19:33:58.425Z,10.03
2022-09-23T19:37:04.523Z,9.96
2022-09-23T19:40:07.938Z,9.90
2022-09-23T19:43:10.785Z,9.85
2022-09-23T19:46:13.495Z,9.77
2022-09-23T19:49:19.823Z,9.68
2022-09-23T19:52:22.797Z,9.63
2022-09-23T19:55:25.585Z,9.60
2022-09-23T19:58:28.038Z,9.57
2022-09-23T20:01:31.989Z,9.48
2022-09-23T20:04:36.111Z,9.71
2022-09-23T20:07:41.076Z,9.70
2022-09-23T20:10:44.360Z,10.14
2022-09-23T20:13:48.144Z,10.11
2022-09-23T20:16:51.939Z,9.84
2022-09-23T20:19:54.334Z,9.53
2022-09-23T20:22:56.943Z,9.46
2022-09-23T20:26:19.734Z,9.52
2022-09-23T20:29:22.499Z,9.53
2022-09-23T20:32:25.198Z,9.43
2022-09-23T20:35:33.124Z,9.41
2022-09-23T20:38:36.623Z,9.26
2022-09-23T20:41:39.708Z,9.06
2022-09-23T20:44:43.417Z,9.07
2022-09-23T20:47:46.225Z,9.10
2022-09-23T20:50:51.220Z,9.00
2022-09-23T20:53:54.046Z,8.96
2022-09-23T20:56:57.119Z,8.90
2022-09-23T20:59:59.907Z,8.68
2022-09-23T21:03:02.658Z,8.56
2022-09-23T21:06:06.816Z,8.41
2022-09-23T21:09:09.254Z,8.42
2022-09-23T21:12:11.930Z,8.30
2022-09-23T21:15:14.359Z,8.35
2022-09-23T21:18:23.228Z,8.27
2022-09-23T21:21:26.021Z,8.16
2022-09-23T21:25:12.137Z,8.10
2022-09-23T21:27:54.111Z,8.16
2022-09-23T21:31:05.746Z,8.04
2022-09-23T21:34:11.190Z,8.09
2022-09-23T21:37:14.073Z,7.98
2022-09-23T21:40:35.071Z,7.92
2022-09-23T21:43:40.429Z,7.79
2022-09-23T21:46:43.329Z,7.80
2022-09-23T21:49:50.610Z,7.77
2022-09-23T21:52:53.488Z,7.68
2022-09-23T21:56:07.002Z,7.60
2022-09-23T21:59:10.052Z,7.55
2022-09-23T22:02:12.719Z,7.56
2022-09-23T22:05:15.457Z,7.47
2022-09-23T22:08:17.822Z,7.39
2022-09-23T22:11:41.058Z,7.37
2022-09-23T22:14:43.607Z,7.38
2022-09-23T22:17:48.078Z,7.33
2022-09-23T22:20:50.742Z,7.30
2022-09-23T22:23:54.887Z,7.31
2022-09-23T22:26:57.330Z,7.38
2022-09-23T22:30:18.828Z,7.50
2022-09-23T22:33:22.023Z,7.43
2022-09-23T22:36:24.886Z,7.48
2022-09-23T22:39:29.738Z,7.46
2022-09-23T22:42:37.849Z,7.29
2022-09-23T22:45:49.548Z,7.21
2022-09-23T22:48:53.244Z,7.15
2022-09-23T22:51:55.819Z,7.04
2022-09-23T22:54:58.593Z,6.97
2022-09-23T22:58:15.359Z,6.93
2022-09-23T23:01:23.791Z,6.88
2022-09-23T23:04:27.006Z,6.88
2022-09-23T23:07:29.754Z,6.96
2022-09-23T23:10:32.565Z,6.88
2022-09-23T23:13:35.667Z,6.83
2022-09-23T23:16:38.990Z,7.11
2022-09-23T23:19:41.753Z,7.34
2022-09-23T23:22:44.247Z,7.27
2022-09-23T23:25:46.969Z,7.30
2022-09-23T23:28:51.583Z,7.23
2022-09-23T23:31:54.430Z,7.05
2022-09-23T23:34:56.965Z,6.95
2022-09-23T23:37:59.703Z,6.89
2022-09-23T23:41:03.223Z,6.84
2022-09-23T23:44:07.049Z,6.77
2022-09-23T23:47:09.518Z,6.73
2022-09-23T23:50:12.270Z,6.85
2022-09-23T23:53:14.722Z,6.84
2022-09-23T23:56:20.548Z,6.84
2022-09-23T23:59:23.066Z,6.72
